Time;durP1;ratioP1;P1;durP2;ratioP2;P2;SDS_P1;SDS_P2;PMS_P1;PMS_P2;Temp;Humidity;BMP_temperature;BMP_pressure;BME280_temperature;BME280_humidity;BME280_pressure;Samples;Min_cycle;Max_cycle;Signal;HPM_P1;HPM_P2
2023/04/30 02:02:10;;;;;;;11.73;7.80;;;;;;;;;;4418290;28;20086;-74
2023/04/30 02:04:37;;;;;;;13.88;7.93;;;;;;;;;;4285805;33;20075;-74
2023/04/30 02:07:03;;;;;;;13.90;8.65;;;;;;;;;;4280993;33;20037;-75
2023/04/30 02:09:29;;;;;;;14.98;8.40;;;;;;;;;;4283915;33;20183;-75
2023/04/30 02:11:56;;;;;;;15.02;7.45;;;;;;;;;;4292401;33;20038;-75
2023/04/30 02:14:22;;;;;;;15.05;8.38;;;;;;;;;;4294021;33;20060;-75
2023/04/30 02:16:51;;;;;;;11.30;8.13;;;;;;;;;;4293680;33;20045;-76
2023/04/30 02:19:18;;;;;;;14.75;8.65;;;;;;;;;;4294073;33;20104;-75
2023/04/30 02:21:50;;;;;;;12.10;8.18;;;;;;;;;;4293802;33;20037;-75
2023/04/30 02:24:17;;;;;;;11.55;7.80;;;;;;;;;;4277515;33;20045;-74
2023/04/30 02:26:42;;;;;;;16.95;8.63;;;;;;;;;;4279414;33;20049;-75
2023/04/30 02:29:09;;;;;;;10.98;7.95;;;;;;;;;;4279424;33;20042;-75
2023/04/30 02:31:35;;;;;;;12.90;7.65;;;;;;;;;;4278956;33;20064;-75
2023/04/30 02:34:01;;;;;;;13.55;8.13;;;;;;;;;;4273649;33;20222;-75
2023/04/30 02:36:27;;;;;;;13.65;7.90;;;;;;;;;;4268558;33;20037;-75
2023/04/30 02:38:54;;;;;;;10.27;7.37;;;;;;;;;;4266700;33;20922;-75
2023/04/30 02:41:20;;;;;;;11.60;7.80;;;;;;;;;;4279112;33;20084;-75
2023/04/30 02:43:46;;;;;;;10.88;7.43;;;;;;;;;;4276814;33;20075;-75
2023/04/30 02:46:13;;;;;;;12.85;7.70;;;;;;;;;;4278961;33;20066;-75
2023/04/30 02:48:39;;;;;;;13.27;8.35;;;;;;;;;;4276797;33;20046;-74
2023/04/30 02:51:05;;;;;;;15.77;7.18;;;;;;;;;;4278531;33;20096;-74
2023/04/30 02:53:31;;;;;;;18.37;8.02;;;;;;;;;;4279211;33;20067;-75
2023/04/30 02:55:58;;;;;;;11.80;7.43;;;;;;;;;;4279086;33;20432;-75
2023/04/30 02:58:24;;;;;;;15.95;7.30;;;;;;;;;;4279137;33;20042;-75
2023/04/30 03:00:50;;;;;;;10.57;6.28;;;;;;;;;;4249596;33;20120;-75
2023/04/30 03:03:16;;;;;;;15.63;7.45;;;;;;;;;;4263453;33;20054;-76
2023/04/30 03:05:43;;;;;;;11.23;7.82;;;;;;;;;;4263872;33;20060;-75
2023/04/30 03:08:09;;;;;;;13.43;7.55;;;;;;;;;;4264699;33;20046;-75
2023/04/30 03:10:35;;;;;;;10.88;7.45;;;;;;;;;;4264765;33;20079;-75
2023/04/30 03:13:01;;;;;;;20.35;8.25;;;;;;;;;;4262641;33;20037;-75
2023/04/30 03:15:28;;;;;;;9.27;6.93;;;;;;;;;;4261465;33;20095;-74
2023/04/30 03:17:54;;;;;;;16.12;7.18;;;;;;;;;;4279373;33;20057;-75
2023/04/30 03:20:20;;;;;;;11.10;7.43;;;;;;;;;;4277608;33;20063;-74
2023/04/30 03:22:46;;;;;;;12.65;7.20;;;;;;;;;;4278130;33;20075;-74
2023/04/30 03:25:12;;;;;;;13.10;6.93;;;;;;;;;;4277986;33;20033;-75
2023/04/30 03:27:39;;;;;;;12.35;7.60;;;;;;;;;;4277356;33;20067;-74
2023/04/30 03:30:06;;;;;;;11.68;6.32;;;;;;;;;;4278975;33;20071;-74
2023/04/30 03:32:32;;;;;;;14.73;7.72;;;;;;;;;;4278489;33;20057;-74
2023/04/30 03:34:58;;;;;;;17.85;7.47;;;;;;;;;;4249830;33;20135;-75
2023/04/30 03:37:26;;;;;;;9.90;5.72;;;;;;;;;;4252653;33;20042;-74
2023/04/30 03:39:51;;;;;;;12.95;6.85;;;;;;;;;;4276712;33;20033;-74
2023/04/30 03:42:18;;;;;;;13.15;7.93;;;;;;;;;;4278501;33;20118;-75
2023/04/30 03:44:44;;;;;;;11.63;7.32;;;;;;;;;;4255566;33;20443;-76
2023/04/30 03:47:10;;;;;;;10.30;6.55;;;;;;;;;;4248146;33;20084;-76
2023/04/30 03:49:36;;;;;;;11.85;7.62;;;;;;;;;;4249473;33;20072;-76
2023/04/30 03:52:04;;;;;;;16.58;7.45;;;;;;;;;;4248113;33;20367;-75
2023/04/30 03:54:30;;;;;;;11.27;6.68;;;;;;;;;;4249330;33;20053;-74
2023/04/30 03:56:56;;;;;;;14.95;8.00;;;;;;;;;;4249722;33;20129;-75
2023/04/30 03:59:23;;;;;;;9.85;7.18;;;;;;;;;;4249050;33;20061;-74
2023/04/30 04:01:49;;;;;;;12.68;7.35;;;;;;;;;;4250012;33;20318;-74
2023/04/30 04:04:16;;;;;;;8.70;6.07;;;;;;;;;;4250103;33;20503;-75
2023/04/30 04:06:42;;;;;;;10.73;6.75;;;;;;;;;;4252246;33;20076;-75
2023/04/30 04:09:08;;;;;;;14.00;7.43;;;;;;;;;;4252534;33;20060;-75
2023/04/30 04:11:34;;;;;;;12.43;8.18;;;;;;;;;;4276262;33;20057;-75
2023/04/30 04:14:00;;;;;;;10.75;5.65;;;;;;;;;;4309788;33;20025;-75
2023/04/30 04:16:27;;;;;;;15.25;6.55;;;;;;;;;;4277958;33;20140;-75
2023/04/30 04:19:00;;;;;;;11.10;6.35;;;;;;;;;;4280839;33;20089;-75
2023/04/30 04:21:27;;;;;;;7.57;5.35;;;;;;;;;;4278785;33;20041;-74
2023/04/30 04:23:55;;;;;;;13.98;6.72;;;;;;;;;;4280603;33;20044;-74
2023/04/30 04:26:24;;;;;;;12.02;6.80;;;;;;;;;;4254891;33;20404;-74
2023/04/30 04:28:50;;;;;;;11.23;7.00;;;;;;;;;;4236635;33;20046;-75
2023/04/30 04:31:17;;;;;;;19.50;5.20;;;;;;;;;;4237167;33;20450;-74
2023/04/30 04:33:43;;;;;;;9.93;5.45;;;;;;;;;;4237785;33;20056;-76
2023/04/30 04:36:10;;;;;;;10.77;5.70;;;;;;;;;;4237539;33;20039;-75
2023/04/30 04:38:36;;;;;;;12.73;5.35;;;;;;;;;;4225261;33;20050;-75
2023/04/30 04:41:03;;;;;;;10.68;5.80;;;;;;;;;;4222498;33;20051;-75
2023/04/30 04:43:29;;;;;;;4.32;3.58;;;;;;;;;;4223752;33;20043;-74
2023/04/30 04:45:56;;;;;;;11.75;6.18;;;;;;;;;;4223771;33;20044;-75
2023/04/30 04:48:21;;;;;;;14.43;6.18;;;;;;;;;;4232751;33;20061;-76
2023/04/30 04:50:48;;;;;;;10.65;6.10;;;;;;;;;;4251232;33;21264;-76
2023/04/30 04:53:14;;;;;;;12.90;6.03;;;;;;;;;;4247716;33;20454;-76
2023/04/30 04:55:40;;;;;;;7.07;5.60;;;;;;;;;;4242014;33;20060;-75
2023/04/30 04:58:06;;;;;;;14.75;7.20;;;;;;;;;;4249255;33;20042;-75
2023/04/30 05:00:33;;;;;;;11.00;6.22;;;;;;;;;;4251632;33;20234;-76
2023/04/30 05:02:59;;;;;;;13.40;6.00;;;;;;;;;;4268124;33;20049;-75
2023/04/30 05:05:25;;;;;;;12.35;6.70;;;;;;;;;;4266869;33;20038;-74
2023/04/30 05:07:53;;;;;;;21.55;6.37;;;;;;;;;;4280403;33;20041;-74
2023/04/30 05:10:20;;;;;;;11.52;6.07;;;;;;;;;;4280323;33;20079;-74
2023/04/30 05:12:46;;;;;;;16.55;6.80;;;;;;;;;;4278992;33;20090;-75
2023/04/30 05:15:12;;;;;;;10.80;5.60;;;;;;;;;;4279662;33;20050;-74
2023/04/30 05:17:38;;;;;;;11.07;5.47;;;;;;;;;;4264461;33;20049;-75
2023/04/30 05:20:06;;;;;;;10.55;5.28;;;;;;;;;;4266281;33;20431;-73
2023/04/30 05:22:32;;;;;;;10.85;4.95;;;;;;;;;;4264811;33;20041;-73
2023/04/30 05:24:58;;;;;;;11.73;5.43;;;;;;;;;;4265643;33;20391;-73
2023/04/30 05:27:26;;;;;;;9.68;6.45;;;;;;;;;;4261481;33;20111;-71
2023/04/30 05:29:52;;;;;;;12.18;5.65;;;;;;;;;;4252165;33;20053;-71
2023/04/30 05:32:18;;;;;;;10.00;5.85;;;;;;;;;;4250625;33;20530;-71
2023/04/30 05:34:44;;;;;;;10.30;5.00;;;;;;;;;;4263586;33;20074;-72
2023/04/30 05:37:13;;;;;;;11.45;5.87;;;;;;;;;;4247769;33;20046;-74
2023/04/30 05:39:39;;;;;;;8.98;4.15;;;;;;;;;;4251715;33;20103;-72
2023/04/30 05:42:05;;;;;;;6.10;3.80;;;;;;;;;;4250081;33;20046;-72
2023/04/30 05:44:32;;;;;;;16.42;6.95;;;;;;;;;;4270607;33;20070;-72
2023/04/30 05:46:58;;;;;;;9.18;5.85;;;;;;;;;;4250443;33;20042;-74
2023/04/30 05:49:24;;;;;;;11.85;5.60;;;;;;;;;;4283484;33;20510;-71
2023/04/30 05:51:50;;;;;;;9.93;4.60;;;;;;;;;;4286810;33;20066;-73
2023/04/30 05:54:16;;;;;;;13.20;4.57;;;;;;;;;;4286027;33;20062;-75
2023/04/30 05:56:42;;;;;;;9.98;4.43;;;;;;;;;;4287714;33;20034;-74
2023/04/30 05:59:09;;;;;;;5.82;3.95;;;;;;;;;;4304435;33;20473;-74
2023/04/30 06:01:35;;;;;;;10.18;4.03;;;;;;;;;;4309745;33;20120;-73
2023/04/30 06:04:03;;;;;;;13.70;5.47;;;;;;;;;;4310759;33;20040;-74
2023/04/30 06:06:30;;;;;;;12.40;3.95;;;;;;;;;;4307746;33;20037;-74
2023/04/30 06:08:56;;;;;;;6.18;3.83;;;;;;;;;;4309634;33;20053;-73
2023/04/30 06:11:24;;;;;;;8.93;4.25;;;;;;;;;;4300502;33;20096;-73
2023/04/30 06:13:50;;;;;;;4.50;2.47;;;;;;;;;;4301051;33;20062;-74
2023/04/30 06:16:22;;;;;;;;;;;;;;;;;;4302742;33;20045;-73
2023/04/30 06:18:49;;;;;;;4.70;3.22;;;;;;;;;;4296980;33;19996;-74
2023/04/30 06:21:15;;;;;;;9.68;4.35;;;;;;;;;;4295318;33;20080;-75
2023/04/30 06:23:41;;;;;;;9.90;3.30;;;;;;;;;;4294322;33;20048;-74
2023/04/30 06:26:07;;;;;;;6.97;3.00;;;;;;;;;;4293361;33;20056;-74
2023/04/30 06:28:33;;;;;;;7.65;3.37;;;;;;;;;;4290811;33;20061;-74
2023/04/30 06:30:59;;;;;;;11.15;3.00;;;;;;;;;;4289403;33;20071;-74
2023/04/30 06:33:26;;;;;;;9.60;3.62;;;;;;;;;;4282919;33;20033;-75
2023/04/30 06:35:54;;;;;;;7.78;3.17;;;;;;;;;;4287490;33;20129;-73
2023/04/30 06:38:20;;;;;;;5.47;3.33;;;;;;;;;;4291480;33;20053;-74
2023/04/30 06:40:46;;;;;;;7.15;3.12;;;;;;;;;;4292786;33;20025;-74
2023/04/30 06:43:12;;;;;;;4.05;2.62;;;;;;;;;;4280561;33;20058;-74
2023/04/30 06:45:39;;;;;;;6.10;3.35;;;;;;;;;;4277313;33;20855;-74
2023/04/30 06:48:05;;;;;;;8.82;3.00;;;;;;;;;;4251056;33;20353;-74
2023/04/30 06:50:31;;;;;;;6.32;2.53;;;;;;;;;;4267475;33;20045;-74
2023/04/30 06:52:57;;;;;;;5.75;2.75;;;;;;;;;;4268212;33;20125;-74
2023/04/30 06:55:24;;;;;;;4.15;2.33;;;;;;;;;;4269716;33;20067;-74
2023/04/30 06:57:50;;;;;;;7.95;3.83;;;;;;;;;;4248708;33;20054;-75
2023/04/30 07:00:16;;;;;;;3.45;2.60;;;;;;;;;;4245990;33;20320;-75
2023/04/30 07:02:43;;;;;;;5.55;2.70;;;;;;;;;;4244730;33;20063;-74
2023/04/30 07:05:10;;;;;;;6.57;2.37;;;;;;;;;;4250192;33;20056;-74
2023/04/30 07:07:36;;;;;;;7.03;1.80;;;;;;;;;;4237860;33;20420;-75
2023/04/30 07:10:02;;;;;;;11.60;2.35;;;;;;;;;;4233173;33;20054;-74
2023/04/30 07:12:29;;;;;;;5.75;2.12;;;;;;;;;;4235325;33;20200;-74
2023/04/30 07:14:55;;;;;;;5.57;2.20;;;;;;;;;;4217286;33;20047;-74
2023/04/30 07:17:21;;;;;;;11.88;2.85;;;;;;;;;;4216041;33;20077;-75
2023/04/30 07:19:47;;;;;;;6.60;3.62;;;;;;;;;;4210996;33;20035;-77
2023/04/30 07:22:13;;;;;;;8.48;2.85;;;;;;;;;;4205449;34;20054;-74
2023/04/30 07:24:40;;;;;;;16.52;3.00;;;;;;;;;;4207102;34;20048;-74
2023/04/30 07:27:06;;;;;;;3.78;2.30;;;;;;;;;;4206692;34;20077;-75
2023/04/30 07:29:32;;;;;;;7.97;2.35;;;;;;;;;;4205128;34;20055;-74
2023/04/30 07:31:58;;;;;;;12.75;3.03;;;;;;;;;;4206653;34;20090;-74
2023/04/30 07:34:25;;;;;;;1.45;1.35;;;;;;;;;;4207377;33;20066;-75
2023/04/30 07:36:51;;;;;;;4.55;2.72;;;;;;;;;;4242492;33;20106;-73
2023/04/30 07:39:17;;;;;;;8.68;2.45;;;;;;;;;;4235556;33;20042;-73
2023/04/30 07:41:43;;;;;;;4.75;2.10;;;;;;;;;;4239428;33;20057;-74
2023/04/30 07:44:10;;;;;;;3.08;1.50;;;;;;;;;;4240943;33;20094;-73
2023/04/30 07:46:37;;;;;;;5.40;2.05;;;;;;;;;;4249238;33;20396;-74
2023/04/30 07:49:03;;;;;;;3.90;2.03;;;;;;;;;;4265245;33;20556;-74
2023/04/30 07:51:30;;;;;;;5.97;2.33;;;;;;;;;;4262446;33;20045;-73
2023/04/30 07:53:56;;;;;;;3.03;1.98;;;;;;;;;;4262965;33;20050;-74
2023/04/30 07:56:22;;;;;;;11.52;2.50;;;;;;;;;;4260981;33;20046;-74
2023/04/30 07:58:48;;;;;;;3.00;2.10;;;;;;;;;;4259893;33;21023;-74
2023/04/30 08:01:14;;;;;;;7.87;1.37;;;;;;;;;;4266875;33;21043;-74
2023/04/30 08:03:40;;;;;;;10.30;1.62;;;;;;;;;;4277487;33;20071;-73
2023/04/30 08:06:09;;;;;;;2.55;1.48;;;;;;;;;;4277628;33;20121;-74
2023/04/30 08:08:38;;;;;;;3.17;1.77;;;;;;;;;;4277434;33;20390;-74
2023/04/30 08:11:05;;;;;;;5.50;1.80;;;;;;;;;;4274647;33;20049;-74
2023/04/30 08:13:30;;;;;;;6.35;1.42;;;;;;;;;;4277315;33;20133;-73
2023/04/30 08:15:57;;;;;;;3.35;1.73;;;;;;;;;;4277752;33;20171;-73
2023/04/30 08:18:23;;;;;;;6.62;1.92;;;;;;;;;;4286957;33;20041;-73
2023/04/30 08:20:49;;;;;;;7.60;1.85;;;;;;;;;;4267360;33;20049;-74
2023/04/30 08:23:15;;;;;;;3.37;1.77;;;;;;;;;;4280345;33;20060;-74
2023/04/30 08:25:42;;;;;;;1.95;1.70;;;;;;;;;;4280131;33;20060;-74
2023/04/30 08:28:08;;;;;;;4.93;2.20;;;;;;;;;;4282620;33;20106;-74
2023/04/30 08:30:34;;;;;;;2.67;1.58;;;;;;;;;;4291221;33;20053;-74
2023/04/30 08:33:00;;;;;;;6.80;2.30;;;;;;;;;;4290802;33;20041;-75
2023/04/30 08:35:28;;;;;;;6.70;2.45;;;;;;;;;;4286865;33;20059;-74
2023/04/30 08:37:54;;;;;;;6.40;2.08;;;;;;;;;;4282048;33;20170;-73
2023/04/30 08:40:21;;;;;;;2.55;2.30;;;;;;;;;;4284333;33;20563;-76
2023/04/30 08:42:59;;;;;;;1.77;1.52;;;;;;;;;;4283961;33;20443;-74
2023/04/30 08:45:25;;;;;;;6.05;1.90;;;;;;;;;;4282195;33;20458;-74
2023/04/30 08:47:51;;;;;;;3.28;1.58;;;;;;;;;;4274423;33;20112;-74
2023/04/30 08:50:18;;;;;;;7.05;1.73;;;;;;;;;;4272883;33;20240;-74
2023/04/30 08:52:44;;;;;;;2.87;1.80;;;;;;;;;;4291291;33;20037;-74
2023/04/30 08:55:10;;;;;;;2.70;1.83;;;;;;;;;;4301809;33;20053;-74
2023/04/30 08:57:37;;;;;;;7.40;2.15;;;;;;;;;;4306304;33;20052;-74
2023/04/30 09:00:05;;;;;;;8.80;2.10;;;;;;;;;;4278885;33;20368;-74
2023/04/30 09:02:32;;;;;;;4.43;1.95;;;;;;;;;;4277445;33;20049;-73
2023/04/30 09:04:58;;;;;;;5.97;1.90;;;;;;;;;;4280331;33;20088;-73
2023/04/30 09:07:27;;;;;;;3.78;1.77;;;;;;;;;;4278382;33;20107;-75
2023/04/30 09:09:54;;;;;;;2.30;1.77;;;;;;;;;;4279738;33;20514;-74
2023/04/30 09:12:21;;;;;;;6.30;1.50;;;;;;;;;;4279345;33;20084;-74
2023/04/30 09:15:07;;;;;;;2.87;1.35;;;;;;;;;;4279989;33;20062;-72
2023/04/30 09:17:34;;;;;;;5.50;2.72;;;;;;;;;;4278350;33;20180;-75
2023/04/30 09:20:10;;;;;;;3.37;1.85;;;;;;;;;;4278977;33;20050;-73
2023/04/30 09:22:37;;;;;;;2.30;1.55;;;;;;;;;;4278837;33;20368;-73
2023/04/30 09:25:03;;;;;;;8.48;1.35;;;;;;;;;;4277218;33;20075;-74
2023/04/30 09:27:29;;;;;;;6.80;1.92;;;;;;;;;;4280079;33;20122;-73
2023/04/30 09:29:56;;;;;;;2.42;1.55;;;;;;;;;;4280009;33;20192;-73
2023/04/30 09:32:22;;;;;;;1.48;1.33;;;;;;;;;;4309598;33;20033;-73
2023/04/30 09:34:48;;;;;;;3.53;1.60;;;;;;;;;;4307386;33;20083;-77
2023/04/30 09:37:15;;;;;;;3.53;1.40;;;;;;;;;;4308458;33;20468;-75
2023/04/30 09:39:48;;;;;;;2.42;1.75;;;;;;;;;;4309995;33;20541;-76
2023/04/30 09:42:14;;;;;;;3.40;1.42;;;;;;;;;;4310134;33;20428;-75
2023/04/30 09:44:40;;;;;;;4.47;1.65;;;;;;;;;;4307864;33;20056;-75
2023/04/30 09:47:12;;;;;;;2.95;1.87;;;;;;;;;;4304714;33;20523;-77
2023/04/30 09:49:40;;;;;;;4.10;1.98;;;;;;;;;;4309612;33;20330;-74
2023/04/30 09:52:07;;;;;;;0.45;0.45;;;;;;;;;;4310745;33;20041;-74
2023/04/30 09:54:34;;;;;;;4.45;1.70;;;;;;;;;;4310342;33;20444;-74
2023/04/30 09:57:01;;;;;;;5.07;2.12;;;;;;;;;;4268791;33;20042;-75
2023/04/30 09:59:29;;;;;;;2.83;1.52;;;;;;;;;;4262005;33;20131;-74
2023/04/30 10:01:57;;;;;;;2.35;1.50;;;;;;;;;;4264103;33;20212;-74
2023/04/30 10:04:24;;;;;;;2.42;1.52;;;;;;;;;;4265292;33;20059;-73
2023/04/30 10:06:53;;;;;;;3.97;1.92;;;;;;;;;;4265396;33;20046;-74
2023/04/30 10:09:20;;;;;;;5.28;1.77;;;;;;;;;;4261528;33;20042;-76
2023/04/30 10:11:47;;;;;;;3.87;1.80;;;;;;;;;;4264624;33;20209;-73
2023/04/30 10:14:15;;;;;;;1.62;1.35;;;;;;;;;;4264156;33;20046;-74
2023/04/30 10:16:59;;;;;;;6.43;1.20;;;;;;;;;;4264837;33;20064;-74
2023/04/30 10:19:32;;;;;;;1.85;1.45;;;;;;;;;;4262595;33;20116;-73
2023/04/30 10:22:00;;;;;;;1.73;1.42;;;;;;;;;;4265025;33;20026;-73
2023/04/30 10:24:27;;;;;;;3.35;1.40;;;;;;;;;;4264449;33;20046;-73
2023/04/30 10:26:53;;;;;;;1.62;1.37;;;;;;;;;;4239867;33;20042;-74
2023/04/30 10:29:20;;;;;;;4.22;0.98;;;;;;;;;;4275781;33;20108;-75
2023/04/30 10:31:47;;;;;;;1.00;0.95;;;;;;;;;;4258124;33;20066;-73
2023/04/30 10:34:13;;;;;;;1.75;1.00;;;;;;;;;;4256613;33;20091;-73
2023/04/30 10:36:43;;;;;;;1.70;1.23;;;;;;;;;;4259513;33;20058;-72
2023/04/30 10:39:13;;;;;;;1.27;1.10;;;;;;;;;;4258262;33;20037;-73
2023/04/30 10:41:43;;;;;;;4.55;1.35;;;;;;;;;;4256234;33;20432;-73
2023/04/30 10:44:09;;;;;;;3.72;1.27;;;;;;;;;;4256178;33;20065;-72
2023/04/30 10:46:35;;;;;;;2.78;1.25;;;;;;;;;;4255807;33;20034;-73
2023/04/30 10:49:02;;;;;;;1.62;1.45;;;;;;;;;;4261920;33;20123;-73
2023/04/30 10:51:53;;;;;;;8.70;1.90;;;;;;;;;;4281093;33;20455;-76
2023/04/30 10:54:29;;;;;;;4.60;1.08;;;;;;;;;;4272210;33;20085;-72
2023/04/30 10:57:10;;;;;;;1.25;1.12;;;;;;;;;;4271363;33;20064;-74
2023/04/30 10:59:37;;;;;;;4.05;1.30;;;;;;;;;;4307720;33;20482;-74
2023/04/30 11:02:03;;;;;;;4.93;1.02;;;;;;;;;;4464811;27;20777;-74
2023/04/30 11:04:55;;;;;;;4.72;1.33;;;;;;;;;;4301460;33;20516;-74
2023/04/30 11:07:24;;;;;;;2.58;1.42;;;;;;;;;;4302549;33;20053;-74
2023/04/30 11:09:55;;;;;;;2.67;1.30;;;;;;;;;;4302867;33;20099;-74
2023/04/30 11:12:27;;;;;;;4.40;1.62;;;;;;;;;;4301280;33;20044;-74
2023/04/30 11:15:06;;;;;;;5.30;1.55;;;;;;;;;;4300125;33;20056;-74
2023/04/30 11:17:33;;;;;;;3.55;1.23;;;;;;;;;;4299626;33;20066;-74
2023/04/30 11:20:01;;;;;;;5.50;1.90;;;;;;;;;;4298216;33;20049;-76
2023/04/30 11:22:28;;;;;;;9.10;1.80;;;;;;;;;;4294469;33;20121;-73
2023/04/30 11:24:58;;;;;;;4.03;1.70;;;;;;;;;;4292667;33;20063;-74
2023/04/30 11:27:24;;;;;;;2.17;1.10;;;;;;;;;;4307687;33;20055;-73
2023/04/30 11:29:51;;;;;;;1.37;1.25;;;;;;;;;;4290177;33;20088;-74
2023/04/30 11:32:22;;;;;;;1.55;1.33;;;;;;;;;;4288183;33;20072;-74
2023/04/30 11:34:48;;;;;;;3.72;1.92;;;;;;;;;;4291006;33;20139;-73
2023/04/30 11:37:18;;;;;;;4.68;1.35;;;;;;;;;;4291407;33;20447;-73
2023/04/30 11:39:51;;;;;;;2.17;1.87;;;;;;;;;;4262937;33;20129;-74
2023/04/30 11:42:18;;;;;;;2.53;1.50;;;;;;;;;;4261504;33;20128;-73
2023/04/30 11:44:44;;;;;;;4.30;1.52;;;;;;;;;;4246153;33;20424;-73
2023/04/30 11:47:14;;;;;;;5.18;1.45;;;;;;;;;;4230065;33;20065;-74
2023/04/30 11:49:41;;;;;;;2.50;1.40;;;;;;;;;;4234700;33;20116;-71
2023/04/30 11:52:08;;;;;;;3.85;2.37;;;;;;;;;;4231512;33;20361;-74
2023/04/30 11:54:35;;;;;;;7.12;1.60;;;;;;;;;;4235967;33;20184;-74
2023/04/30 11:57:03;;;;;;;2.70;1.52;;;;;;;;;;4235947;33;20628;-75
2023/04/30 11:59:30;;;;;;;2.10;1.48;;;;;;;;;;4193953;34;20065;-74
2023/04/30 12:01:57;;;;;;;5.93;1.52;;;;;;;;;;4191577;34;20219;-75
2023/04/30 12:04:23;;;;;;;1.25;1.15;;;;;;;;;;4190905;34;20495;-75
2023/04/30 12:06:49;;;;;;;3.08;1.75;;;;;;;;;;4180194;34;20140;-74
2023/04/30 12:09:15;;;;;;;2.08;1.80;;;;;;;;;;4166284;34;20070;-73
2023/04/30 12:11:42;;;;;;;1.52;1.40;;;;;;;;;;4162264;34;20115;-73
2023/04/30 12:14:13;;;;;;;2.65;1.33;;;;;;;;;;4164010;34;20082;-74
2023/04/30 12:16:39;;;;;;;5.62;1.80;;;;;;;;;;4169415;34;20193;-75
2023/04/30 12:19:06;;;;;;;2.80;1.62;;;;;;;;;;4236681;33;20481;-77
2023/04/30 12:21:32;;;;;;;3.33;1.37;;;;;;;;;;4229844;33;20051;-73
2023/04/30 12:23:58;;;;;;;7.07;2.25;;;;;;;;;;4229804;33;20103;-74
2023/04/30 12:26:33;;;;;;;1.20;1.20;;;;;;;;;;4231733;33;20081;-75
2023/04/30 12:29:09;;;;;;;3.05;1.70;;;;;;;;;;4232511;33;20084;-74
2023/04/30 12:31:36;;;;;;;7.12;1.50;;;;;;;;;;4243725;33;20496;-72
2023/04/30 12:34:03;;;;;;;3.47;1.70;;;;;;;;;;4246400;33;20246;-72
2023/04/30 12:36:35;;;;;;;4.85;2.25;;;;;;;;;;4241575;33;20026;-74
2023/04/30 12:39:06;;;;;;;3.58;1.25;;;;;;;;;;4268740;33;20079;-72
2023/04/30 12:41:35;;;;;;;5.53;1.87;;;;;;;;;;4271402;33;20514;-72
2023/04/30 12:44:22;;;;;;;2.03;1.33;;;;;;;;;;4275489;33;20073;-73
2023/04/30 12:46:49;;;;;;;6.12;1.60;;;;;;;;;;4272595;33;20134;-72
2023/04/30 12:49:29;;;;;;;2.35;1.50;;;;;;;;;;4269983;33;20475;-73
2023/04/30 12:52:00;;;;;;;9.95;2.42;;;;;;;;;;4291946;33;20103;-72
2023/04/30 12:54:27;;;;;;;3.92;1.92;;;;;;;;;;4295755;33;20397;-72
2023/04/30 12:57:00;;;;;;;2.10;1.60;;;;;;;;;;4304170;33;20049;-73
2023/04/30 12:59:27;;;;;;;3.60;2.33;;;;;;;;;;4273312;33;20074;-73
2023/04/30 13:01:56;;;;;;;5.85;1.60;;;;;;;;;;4241184;33;20064;-73
2023/04/30 13:04:22;;;;;;;5.50;1.92;;;;;;;;;;4253899;33;20082;-72
2023/04/30 13:06:49;;;;;;;1.92;1.52;;;;;;;;;;4258170;33;20042;-73
2023/04/30 13:09:15;;;;;;;1.77;1.60;;;;;;;;;;4257208;33;20061;-74
2023/04/30 13:11:42;;;;;;;4.62;1.85;;;;;;;;;;4234055;33;20455;-74
2023/04/30 13:14:10;;;;;;;5.93;1.83;;;;;;;;;;4235577;33;20101;-73
2023/04/30 13:16:36;;;;;;;3.62;1.98;;;;;;;;;;4235802;33;20050;-74
2023/04/30 13:19:04;;;;;;;2.72;1.90;;;;;;;;;;4240260;33;20046;-73
2023/04/30 13:21:30;;;;;;;1.12;1.05;;;;;;;;;;4232781;33;20034;-73
2023/04/30 13:23:56;;;;;;;7.15;1.80;;;;;;;;;;4195799;34;20085;-74
2023/04/30 13:26:22;;;;;;;6.07;1.70;;;;;;;;;;4193624;34;20096;-72
2023/04/30 13:28:50;;;;;;;2.70;1.45;;;;;;;;;;4189165;34;20355;-72
2023/04/30 13:31:15;;;;;;;3.20;1.77;;;;;;;;;;4197379;34;20035;-73
2023/04/30 13:33:42;;;;;;;2.80;1.70;;;;;;;;;;4211908;34;20536;-73
2023/04/30 13:36:08;;;;;;;9.60;2.53;;;;;;;;;;4214696;34;21026;-74
2023/04/30 13:38:35;;;;;;;5.43;1.33;;;;;;;;;;4226051;33;20120;-73
2023/04/30 13:41:00;;;;;;;3.12;1.55;;;;;;;;;;4229467;33;20035;-73
2023/04/30 13:43:27;;;;;;;3.40;1.30;;;;;;;;;;4228751;33;20046;-73
2023/04/30 13:45:53;;;;;;;2.95;1.90;;;;;;;;;;4230444;33;20616;-73
2023/04/30 13:48:19;;;;;;;2.67;1.42;;;;;;;;;;4226908;33;20046;-74
2023/04/30 13:50:45;;;;;;;5.07;1.58;;;;;;;;;;4228718;33;20238;-73
2023/04/30 13:53:12;;;;;;;1.58;1.30;;;;;;;;;;4229798;33;20086;-73
2023/04/30 13:55:37;;;;;;;2.37;1.40;;;;;;;;;;4223922;33;20445;-73
2023/04/30 13:58:04;;;;;;;4.82;1.30;;;;;;;;;;4222222;33;20066;-74
2023/04/30 14:00:30;;;;;;;3.03;1.40;;;;;;;;;;4265724;33;20061;-73
2023/04/30 14:02:56;;;;;;;3.47;1.50;;;;;;;;;;4277294;33;20065;-73
2023/04/30 14:05:22;;;;;;;2.28;1.15;;;;;;;;;;4277610;33;20033;-73
2023/04/30 14:07:49;;;;;;;4.97;1.75;;;;;;;;;;4278917;33;20049;-73
2023/04/30 14:12:50;;;;;;;2.70;1.67;;;;;;;;;;4293095;33;20820;-73
2023/04/30 14:15:16;;;;;;;3.08;2.20;;;;;;;;;;4290637;33;20068;-73
2023/04/30 14:17:43;;;;;;;1.58;1.00;;;;;;;;;;4289209;33;20076;-73
2023/04/30 14:20:09;;;;;;;2.55;1.35;;;;;;;;;;4299287;33;20502;-73
2023/04/30 14:22:37;;;;;;;5.62;1.30;;;;;;;;;;4302781;33;20063;-73
2023/04/30 14:25:03;;;;;;;1.55;1.12;;;;;;;;;;4307115;33;20498;-73
2023/04/30 14:27:30;;;;;;;4.50;1.92;;;;;;;;;;4307368;33;20040;-73
2023/04/30 14:29:56;;;;;;;2.70;1.67;;;;;;;;;;4306982;33;20451;-72
2023/04/30 14:32:25;;;;;;;4.47;1.50;;;;;;;;;;4306000;33;20071;-75
2023/04/30 14:34:57;;;;;;;1.42;1.33;;;;;;;;;;4305366;33;20827;-74
2023/04/30 14:37:24;;;;;;;2.40;1.70;;;;;;;;;;4303214;33;20072;-73
2023/04/30 14:39:50;;;;;;;4.10;1.37;;;;;;;;;;4310672;33;20070;-73
2023/04/30 14:42:16;;;;;;;1.58;1.48;;;;;;;;;;4312449;33;20053;-75
2023/04/30 14:44:43;;;;;;;4.22;1.55;;;;;;;;;;4307312;33;20514;-74
2023/04/30 14:47:09;;;;;;;1.30;1.12;;;;;;;;;;4285866;33;20730;-74
2023/04/30 14:49:35;;;;;;;3.08;1.52;;;;;;;;;;4268820;33;20032;-73
2023/04/30 14:52:02;;;;;;;2.05;1.50;;;;;;;;;;4268215;33;20105;-74
2023/04/30 14:54:28;;;;;;;3.30;2.33;;;;;;;;;;4284511;33;20541;-73
2023/04/30 14:56:54;;;;;;;2.40;1.37;;;;;;;;;;4276465;33;20548;-74
2023/04/30 14:59:21;;;;;;;3.83;1.42;;;;;;;;;;4281379;33;20075;-74
2023/04/30 15:01:47;;;;;;;4.70;1.62;;;;;;;;;;4276442;33;20061;-74
2023/04/30 15:04:13;;;;;;;5.03;2.08;;;;;;;;;;4275332;33;20124;-75
2023/04/30 15:06:40;;;;;;;11.18;2.03;;;;;;;;;;4271590;33;20049;-76
2023/04/30 15:09:06;;;;;;;3.75;1.50;;;;;;;;;;4277837;33;20049;-73
2023/04/30 15:11:32;;;;;;;2.80;1.27;;;;;;;;;;4274523;33;20443;-73
2023/04/30 15:14:05;;;;;;;2.22;1.62;;;;;;;;;;4248061;33;20085;-73
2023/04/30 15:16:38;;;;;;;2.67;1.48;;;;;;;;;;4247282;33;20179;-76
2023/04/30 15:19:04;;;;;;;3.42;1.50;;;;;;;;;;4250020;33;20444;-73
2023/04/30 15:21:30;;;;;;;13.27;2.37;;;;;;;;;;4261968;33;20068;-73
2023/04/30 15:23:56;;;;;;;2.33;1.60;;;;;;;;;;4263832;33;20038;-74
2023/04/30 15:26:24;;;;;;;8.55;1.70;;;;;;;;;;4248340;33;20050;-75
2023/04/30 15:28:50;;;;;;;6.15;1.60;;;;;;;;;;4244817;33;20054;-74
2023/04/30 15:31:16;;;;;;;6.40;2.10;;;;;;;;;;4275564;33;20066;-74
2023/04/30 15:33:43;;;;;;;1.90;1.70;;;;;;;;;;4275880;33;20670;-74
2023/04/30 15:36:09;;;;;;;3.17;1.83;;;;;;;;;;4278024;33;20120;-73
2023/04/30 15:38:35;;;;;;;1.52;1.42;;;;;;;;;;4263963;33;20411;-76
2023/04/30 15:41:07;;;;;;;1.85;1.12;;;;;;;;;;4263927;33;20075;-73
2023/04/30 15:43:33;;;;;;;1.90;1.67;;;;;;;;;;4278889;33;20053;-75
2023/04/30 15:46:00;;;;;;;3.62;1.85;;;;;;;;;;4286028;33;20075;-74
2023/04/30 15:48:26;;;;;;;2.10;2.00;;;;;;;;;;4293119;33;20041;-80
2023/04/30 15:50:52;;;;;;;3.12;2.10;;;;;;;;;;4287701;33;20101;-75
2023/04/30 15:53:18;;;;;;;2.97;2.08;;;;;;;;;;4290477;33;21107;-75
2023/04/30 15:55:46;;;;;;;7.28;3.12;;;;;;;;;;4293040;33;20452;-74
2023/04/30 15:58:12;;;;;;;7.00;3.17;;;;;;;;;;4295100;33;20049;-79
2023/04/30 16:00:40;;;;;;;4.47;1.75;;;;;;;;;;4290303;33;20330;-71
2023/04/30 16:03:06;;;;;;;2.35;2.12;;;;;;;;;;4267634;33;20072;-72
2023/04/30 16:05:33;;;;;;;6.90;1.92;;;;;;;;;;4265861;33;20057;-71
2023/04/30 16:07:59;;;;;;;9.32;2.87;;;;;;;;;;4260407;33;20038;-76
2023/04/30 16:10:26;;;;;;;2.90;1.67;;;;;;;;;;4256456;33;20487;-74
2023/04/30 16:12:52;;;;;;;4.55;2.85;;;;;;;;;;4258134;33;20091;-76
2023/04/30 16:15:18;;;;;;;5.82;2.30;;;;;;;;;;4262943;33;20087;-75
2023/04/30 16:17:44;;;;;;;7.80;2.85;;;;;;;;;;4264732;33;20124;-73
2023/04/30 16:20:11;;;;;;;8.45;3.08;;;;;;;;;;4264831;33;20131;-76
2023/04/30 16:22:37;;;;;;;2.97;1.77;;;;;;;;;;4267513;33;20068;-74
2023/04/30 16:25:07;;;;;;;5.62;1.87;;;;;;;;;;4276661;33;20517;-75
2023/04/30 16:27:33;;;;;;;3.40;1.50;;;;;;;;;;4265615;33;20738;-74
2023/04/30 16:30:00;;;;;;;3.30;1.92;;;;;;;;;;4274748;33;20068;-75
2023/04/30 16:32:26;;;;;;;2.78;2.20;;;;;;;;;;4280086;33;20025;-73
2023/04/30 16:34:52;;;;;;;5.68;1.60;;;;;;;;;;4277089;33;20052;-75
2023/04/30 16:37:18;;;;;;;3.55;2.37;;;;;;;;;;4280375;33;20185;-76
2023/04/30 16:39:45;;;;;;;3.10;2.20;;;;;;;;;;4278378;33;20463;-76
2023/04/30 16:42:11;;;;;;;9.50;3.30;;;;;;;;;;4265293;33;20090;-74
2023/04/30 16:44:38;;;;;;;5.00;2.35;;;;;;;;;;4286460;33;20053;-74